CheckWX is a tool to help pilots better visualize weather data.  It is not intended as a substitute for an official pre-flight weather briefing.

08:36:22 UTC

EHGG METAR
Eelde Airport
Groningen, The Netherlands
Current

11 mins ago

EHGG 170825Z AUTO VRB02KT 9999 OVC013 16/13 Q1016 NOSIG
Observed
Jul-17 @ 08:25 UTC
Wind
  • Variable at 2 KTS
Visibility
10,000+ meters
Flight Rules
MVFR
Cloud Levels
  • Overcast at 1,300' AGL
Temperature
16°C / 61°F
Dewpoint
13°C / 55°F
Humidity
83%
Altimeter
30" Hg
Pressure
1015.92 hPa
Previous

41 mins ago

EHGG 170755Z AUTO VRB02KT 9999 OVC012 16/13 Q1016 NOSIG
Observed
Jul-17 @ 07:55 UTC
Wind
  • Variable at 2 KTS
Visibility
10,000+ meters
Flight Rules
MVFR
Cloud Levels
  • Overcast at 1,200' AGL
Temperature
16°C / 61°F
Dewpoint
13°C / 55°F
Humidity
83%
Altimeter
30" Hg
Pressure
1015.92 hPa
Previous

1 hour ago

EHGG 170725Z AUTO VRB02KT 9999 BKN011 OVC014 15/12 Q1016 NOSIG
Observed
Jul-17 @ 07:25 UTC
Wind
  • Variable at 2 KTS
Visibility
10,000+ meters
Flight Rules
MVFR
Cloud Levels
  • Broken at 1,100' AGL
  • Overcast at 1,400' AGL
Temperature
15°C / 59°F
Dewpoint
12°C / 54°F
Humidity
82%
Altimeter
30" Hg
Pressure
1015.92 hPa